Terminal Aerodrome Forecast
Issued by NWS

Home | Current Version | Previous Version | Text Only | Print | Product List | Glossary On
Versions: 1 2 3 4 5 6 7 8 9 10 11 12 13 14 15 16 17 18 19 20 21 22 23 24 25 26 27 28 29 30 31 32 33 34 35
000
FTUS43 KDTX 230539
TAFPTK
TAF
KPTK 230539Z 2306/2406 21011KT P6SM SCT040 BKN090
     FM230700 21011KT P6SM BKN025 OVC040
     FM231000 23008KT P6SM -SHRA BKN012 OVC022
      TEMPO 2313/2316 2SM TSRA OVC009CB
     FM231600 26012KT P6SM SCT025 BKN100
     FM232000 29012KT P6SM BKN030
     FM240300 29006KT P6SM BKN120=

USA.gov is the U.S. government's official web portal to all federal, state and local government web resources and services.